Time;durP1;ratioP1;P1;durP2;ratioP2;P2;SDS_P1;SDS_P2;PMS_P1;PMS_P2;Temp;Humidity;BMP_temperature;BMP_pressure;BME280_temperature;BME280_humidity;BME280_pressure;Samples;Min_cycle;Max_cycle;Signal;HPM_P1;HPM_P2
2023/10/25 00:00:30;;;;;;;45.15;22.15;;;;;;;13.74;100.00;98944.88;5589090;31;34026;-68
2023/10/25 00:03:35;;;;;;;39.53;21.98;;;;;;;13.73;100.00;98939.75;5589426;31;34071;-68
2023/10/25 00:06:38;;;;;;;40.60;21.02;;;;;;;13.74;100.00;98938.72;5589211;31;34091;-69
2023/10/25 00:09:41;;;;;;;41.05;21.23;;;;;;;13.76;100.00;98924.13;5588838;31;34250;-68
2023/10/25 00:12:44;;;;;;;38.47;21.15;;;;;;;13.79;100.00;98922.88;5588899;31;34966;-68
2023/10/25 00:15:47;;;;;;;44.92;23.05;;;;;;;13.77;100.00;98920.44;5588802;31;34782;-68
2023/10/25 00:18:50;;;;;;;50.30;23.65;;;;;;;13.78;100.00;98921.25;5588113;31;34009;-68
2023/10/25 00:21:53;;;;;;;41.10;21.98;;;;;;;13.80;100.00;98925.31;5588699;31;34137;-67
2023/10/25 00:24:56;;;;;;;39.17;20.70;;;;;;;13.88;100.00;98918.87;5588600;31;34124;-67
2023/10/25 00:27:59;;;;;;;44.53;22.35;;;;;;;13.92;100.00;98912.06;5588570;31;34003;-67
2023/10/25 00:31:02;;;;;;;41.97;20.70;;;;;;;13.91;100.00;98905.09;5588503;31;34192;-67
2023/10/25 00:34:05;;;;;;;35.47;19.42;;;;;;;13.95;100.00;98895.59;5588884;31;34179;-67
2023/10/25 00:37:08;;;;;;;40.22;21.80;;;;;;;13.95;100.00;98895.59;5588652;31;34648;-66
2023/10/25 00:40:11;;;;;;;44.65;22.23;;;;;;;13.99;100.00;98882.66;5588241;31;34254;-66
2023/10/25 00:43:20;;;;;;;33.22;14.73;;;;;;;13.95;100.00;98874.25;5588400;31;34875;-66
2023/10/25 00:46:25;;;;;;;46.28;18.62;;;;;;;13.97;100.00;98874.03;5588011;31;34399;-66
2023/10/25 00:49:29;;;;;;;42.25;19.70;;;;;;;13.97;100.00;98869.53;5588159;31;34784;-66
2023/10/25 00:52:32;;;;;;;32.50;14.63;;;;;;;13.99;100.00;98872.78;5588268;31;33990;-67
2023/10/25 00:55:34;;;;;;;39.97;16.33;;;;;;;13.99;100.00;98872.78;5588069;31;34789;-67
2023/10/25 00:58:44;;;;;;;33.88;13.90;;;;;;;14.08;100.00;98867.94;5588431;31;34007;-67
2023/10/25 01:01:49;;;;;;;32.00;10.25;;;;;;;14.08;100.00;98867.94;5588034;31;35005;-67
2023/10/25 01:04:52;;;;;;;41.55;10.00;;;;;;;14.26;100.00;98878.56;5588075;31;34068;-65
2023/10/25 01:07:55;;;;;;;44.25;9.15;;;;;;;14.35;100.00;98864.66;5590306;31;34181;-65
2023/10/25 01:10:57;;;;;;;39.85;7.70;;;;;;;14.35;100.00;98864.66;5590418;31;35355;-66
2023/10/25 01:14:01;;;;;;;37.83;8.35;;;;;;;14.35;100.00;98864.66;5590474;31;34384;-66
2023/10/25 01:17:04;;;;;;;49.67;9.55;;;;;;;14.35;100.00;98864.66;5590396;31;34770;-65
2023/10/25 01:20:07;;;;;;;40.65;9.23;;;;;;;14.35;100.00;98864.66;5590471;31;34593;-65
2023/10/25 01:23:11;;;;;;;49.70;10.52;;;;;;;14.35;100.00;98864.66;5590501;31;34141;-64
2023/10/25 01:26:14;;;;;;;46.25;10.63;;;;;;;14.35;100.00;98864.66;5590323;31;34075;-65
2023/10/25 01:29:18;;;;;;;51.22;11.25;;;;;;;14.35;100.00;98864.66;5590316;31;34270;-65
2023/10/25 01:32:21;;;;;;;46.70;12.05;;;;;;;14.35;100.00;98864.66;5589600;31;34774;-65
2023/10/25 01:35:25;;;;;;;48.53;12.88;;;;;;;14.35;100.00;98864.66;5590588;31;34160;-65
2023/10/25 01:38:28;;;;;;;46.00;13.95;;;;;;;14.35;100.00;98864.66;5590275;31;34844;-65
2023/10/25 01:41:32;;;;;;;48.35;16.55;;;;;;;14.35;100.00;98864.66;5589381;31;34385;-65
2023/10/25 01:44:34;;;;;;;56.75;15.90;;;;;;;14.35;100.00;98864.66;5589329;31;34078;-66
2023/10/25 01:47:39;;;;;;;51.95;16.55;;;;;;;14.35;100.00;98864.66;5590122;31;34009;-65
2023/10/25 01:50:41;;;;;;;58.78;16.95;;;;;;;14.35;100.00;98864.66;5590244;31;34004;-66
2023/10/25 01:53:44;;;;;;;54.65;17.27;;;;;;;14.35;100.00;98864.66;5590453;31;33997;-66
2023/10/25 01:56:47;;;;;;;60.42;17.98;;;;;;;14.35;100.00;98864.66;5590275;31;34778;-66
2023/10/25 01:59:50;;;;;;;51.67;16.37;;;;;;;14.35;100.00;98864.66;5590389;31;34012;-65
2023/10/25 02:02:53;;;;;;;53.47;16.80;;;;;;;14.35;100.00;98864.66;5590194;31;34786;-65
2023/10/25 02:05:56;;;;;;;47.78;16.35;;;;;;;14.35;100.00;98864.66;5590423;31;34705;-66
2023/10/25 02:08:58;;;;;;;65.82;18.48;;;;;;;14.35;100.00;98864.66;5590044;31;34056;-66
2023/10/25 02:12:09;;;;;;;54.00;19.37;;;;;;;14.35;100.00;98864.66;5589988;31;34387;-66
2023/10/25 02:15:15;;;;;;;66.80;20.42;;;;;;;14.35;100.00;98864.66;5589962;31;34097;-66
2023/10/25 02:18:18;;;;;;;51.80;18.60;;;;;;;14.35;100.00;98864.66;5590260;31;34711;-66
2023/10/25 02:21:21;;;;;;;61.45;18.02;;;;;;;14.35;100.00;98864.66;5589897;31;34113;-66
2023/10/25 02:24:24;;;;;;;55.17;18.40;;;;;;;14.33;100.00;98753.88;5589921;31;34073;-66
2023/10/25 02:27:27;;;;;;;52.53;19.83;;;;;;;14.30;100.00;98746.34;5589838;31;34008;-66
2023/10/25 02:30:30;;;;;;;55.78;20.98;;;;;;;14.30;100.00;98751.69;5589871;31;34031;-67
2023/10/25 02:33:33;;;;;;;65.43;22.95;;;;;;;14.32;100.00;98753.09;5590197;31;34379;-67
2023/10/25 02:36:36;;;;;;;66.00;22.55;;;;;;;14.35;100.00;98754.47;5589922;31;34392;-67
2023/10/25 02:39:39;;;;;;;63.47;21.42;;;;;;;14.34;100.00;98748.31;5589783;31;34842;-67
2023/10/25 02:42:44;;;;;;;64.43;22.42;;;;;;;14.32;100.00;98739.75;5589728;31;34433;-66
2023/10/25 02:45:47;;;;;;;63.55;20.98;;;;;;;14.35;100.00;98741.13;5589613;31;34781;-66
2023/10/25 02:48:51;;;;;;;50.95;20.83;;;;;;;14.35;100.00;98736.59;5589803;31;34259;-66
2023/10/25 02:51:54;;;;;;;77.82;24.50;;;;;;;14.34;100.00;98736.81;5590036;31;34758;-67
2023/10/25 02:54:57;;;;;;;87.35;24.85;;;;;;;14.38;100.00;98731.91;5589726;31;34057;-66
2023/10/25 02:58:01;;;;;;;85.18;24.77;;;;;;;14.40;100.00;98735.13;5589720;31;33657;-66
2023/10/25 03:01:04;;;;;;;75.57;24.83;;;;;;;14.41;100.00;98728.75;5589702;31;34091;-67
2023/10/25 03:04:07;;;;;;;61.92;21.40;;;;;;;14.41;100.00;98728.75;5589766;31;34727;-66
2023/10/25 03:07:11;;;;;;;59.13;21.83;;;;;;;14.41;100.00;98728.75;5589561;31;34108;-66
2023/10/25 03:10:14;;;;;;;74.93;24.30;;;;;;;14.37;100.00;98720.41;5589568;31;34147;-66
2023/10/25 03:13:43;;;;;;;103.32;28.08;;;;;;;14.42;100.00;98717.03;5589541;31;34357;-66
2023/10/25 03:16:49;;;;;;;81.12;25.62;;;;;;;14.42;100.00;98717.03;5589621;31;34195;-66
2023/10/25 03:19:52;;;;;;;88.32;24.80;;;;;;;14.42;100.00;98717.03;5589565;31;34831;-67
2023/10/25 03:22:56;;;;;;;110.68;29.10;;;;;;;14.40;100.00;98721.78;5589494;31;34808;-67
2023/10/25 03:26:06;;;;;;;83.55;25.37;;;;;;;14.38;100.00;98718.56;5589482;31;34131;-67
2023/10/25 03:29:09;;;;;;;71.05;21.90;;;;;;;14.38;100.00;98718.56;5588747;31;34728;-68
2023/10/25 03:32:12;;;;;;;47.78;19.12;;;;;;;14.38;100.00;98718.56;5589720;31;35553;-68
2023/10/25 03:35:15;;;;;;;16.50;7.47;;;;;;;14.38;100.00;98718.56;5589365;31;34806;-68
2023/10/25 03:38:18;;;;;;;4.20;2.70;;;;;;;14.38;100.00;98718.56;5589485;31;34008;-69
2023/10/25 03:41:21;;;;;;;3.87;2.10;;;;;;;14.38;100.00;98718.56;5588602;31;34192;-69
2023/10/25 03:44:24;;;;;;;3.33;1.80;;;;;;;14.38;100.00;98718.56;5587277;31;34356;-69
2023/10/25 03:47:27;;;;;;;3.35;2.12;;;;;;;14.38;100.00;98718.56;5585135;31;34037;-69
2023/10/25 03:50:30;;;;;;;4.87;2.40;;;;;;;14.38;100.00;98718.56;5589193;31;34224;-68
2023/10/25 03:53:34;;;;;;;5.80;2.95;;;;;;;14.38;100.00;98718.56;5589212;31;34999;-70
2023/10/25 03:56:39;;;;;;;5.70;3.95;;;;;;;14.38;100.00;98718.56;5589264;31;34136;-69
2023/10/25 03:59:42;;;;;;;7.90;5.75;;;;;;;14.38;100.00;98718.56;5588308;31;34117;-68
2023/10/25 04:02:46;;;;;;;9.40;6.45;;;;;;;14.38;100.00;98718.56;5589408;31;34214;-67
2023/10/25 04:07:05;;;;;;;9.55;7.28;;;;;;;14.38;100.00;98718.56;5589040;31;34680;-67
2023/10/25 04:12:21;;;;;;;10.27;8.45;;;;;;;14.38;100.00;98718.56;5589310;31;34015;-68
2023/10/25 04:15:25;;;;;;;9.95;8.52;;;;;;;14.38;100.00;98718.56;5588847;31;35485;-68
2023/10/25 04:18:29;;;;;;;10.30;8.57;;;;;;;14.38;100.00;98718.56;5588607;31;35093;-67
2023/10/25 04:21:32;;;;;;;10.60;8.32;;;;;;;14.38;100.00;98718.56;5588732;31;34015;-68
2023/10/25 04:24:58;;;;;;;11.52;8.27;;;;;;;14.38;100.00;98718.56;5588700;31;35567;-68
2023/10/25 04:30:56;;;;;;;11.10;8.27;;;;;;;14.38;100.00;98718.56;5588629;31;34752;-68
2023/10/25 04:33:59;;;;;;;10.43;8.02;;;;;;;14.38;100.00;98718.56;5588527;31;34795;-68
2023/10/25 04:37:02;;;;;;;11.95;8.10;;;;;;;14.38;100.00;98718.56;5588482;31;34121;-69
2023/10/25 04:40:06;;;;;;;11.38;8.60;;;;;;;14.38;100.00;98718.56;5588480;31;35063;-69
2023/10/25 04:43:09;;;;;;;11.95;8.93;;;;;;;14.38;100.00;98718.56;5590184;31;33958;-69
2023/10/25 04:46:14;;;;;;;12.35;9.65;;;;;;;14.38;100.00;98718.56;5590563;31;34019;-68
2023/10/25 04:49:18;;;;;;;13.48;10.25;;;;;;;14.38;100.00;98718.56;5590275;31;34795;-68
2023/10/25 04:52:21;;;;;;;11.20;9.35;;;;;;;14.38;100.00;98718.56;5590474;31;34352;-68
2023/10/25 04:55:26;;;;;;;11.55;9.65;;;;;;;14.38;100.00;98718.56;5590649;31;34753;-68
2023/10/25 04:58:29;;;;;;;12.68;9.65;;;;;;;14.38;100.00;98718.56;5590640;31;34192;-70
2023/10/25 05:01:31;;;;;;;12.75;10.10;;;;;;;14.38;100.00;98718.56;5590457;31;34322;-67
2023/10/25 05:04:35;;;;;;;11.80;10.02;;;;;;;14.38;100.00;98718.56;5590732;31;33971;-68
2023/10/25 05:07:38;;;;;;;11.38;9.75;;;;;;;14.38;100.00;98718.56;5590842;31;35430;-68
2023/10/25 05:10:42;;;;;;;11.63;10.30;;;;;;;14.38;100.00;98718.56;5589600;31;34045;-69
2023/10/25 05:13:45;;;;;;;15.50;11.12;;;;;;;14.38;100.00;98718.56;5590438;31;34074;-68
2023/10/25 05:16:48;;;;;;;13.77;11.00;;;;;;;14.38;100.00;98718.56;5590325;31;35158;-70
2023/10/25 05:19:51;;;;;;;13.02;10.95;;;;;;;14.38;100.00;98718.56;5590498;31;33992;-67
2023/10/25 05:22:58;;;;;;;13.13;10.80;;;;;;;14.38;100.00;98718.56;5590161;31;34335;-69
2023/10/25 05:26:04;;;;;;;15.73;11.12;;;;;;;14.38;100.00;98718.56;5590269;31;34073;-69
